Time;durP1;ratioP1;P1;durP2;ratioP2;P2;SDS_P1;SDS_P2;PMS_P1;PMS_P2;Temp;Humidity;BMP_temperature;BMP_pressure;BME280_temperature;BME280_humidity;BME280_pressure;Samples;Min_cycle;Max_cycle;Signal;HPM_P1;HPM_P2
2021/07/16 00:00:29;;;;;;;;;;;22.90;63.80;;;;;;4989740;28;20818;-71
2021/07/16 00:02:55;;;;;;;;;;;22.90;63.60;;;;;;5005701;28;19953;-70
2021/07/16 00:05:20;;;;;;;;;;;22.90;63.60;;;;;;5004129;28;20426;-70
2021/07/16 00:07:46;;;;;;;;;;;22.90;63.50;;;;;;5005501;28;19920;-69
2021/07/16 00:10:13;;;;;;;;;;;22.90;63.50;;;;;;5004437;28;19922;-65
2021/07/16 00:12:38;;;;;;;;;;;22.90;63.40;;;;;;5005107;28;19999;-66
2021/07/16 00:15:04;;;;;;;;;;;22.90;63.30;;;;;;5004152;28;20031;-65
2021/07/16 00:17:30;;;;;;;;;;;22.90;63.40;;;;;;5004323;28;19925;-64
2021/07/16 00:19:55;;;;;;;;;;;22.90;63.30;;;;;;5003681;28;20547;-71
2021/07/16 00:22:22;;;;;;;;;;;22.90;63.30;;;;;;5002587;28;19925;-66
2021/07/16 00:24:48;;;;;;;;;;;22.90;63.20;;;;;;5005801;28;19924;-70
2021/07/16 00:27:13;;;;;;;;;;;22.90;63.20;;;;;;5001800;28;19913;-71
2021/07/16 00:29:39;;;;;;;;;;;22.90;63.20;;;;;;5005325;28;19914;-69
2021/07/16 00:32:04;;;;;;;;;;;22.80;63.20;;;;;;4991680;28;19968;-65
2021/07/16 00:34:30;;;;;;;;;;;22.80;63.10;;;;;;4993879;28;19996;-70
2021/07/16 00:36:55;;;;;;;;;;;22.90;63.20;;;;;;5000313;28;19925;-70
2021/07/16 00:39:21;;;;;;;;;;;22.80;63.10;;;;;;4991113;28;20282;-65
2021/07/16 00:41:46;;;;;;;;;;;22.80;63.20;;;;;;4989547;28;20300;-65
2021/07/16 00:44:12;;;;;;;;;;;22.80;63.10;;;;;;4994544;28;19980;-70
2021/07/16 00:46:38;;;;;;;;;;;22.80;63.10;;;;;;4995964;28;19914;-69
2021/07/16 00:49:03;;;;;;;;;;;22.80;63.20;;;;;;5002051;28;19914;-67
2021/07/16 00:51:28;;;;;;;;;;;22.80;63.10;;;;;;4996209;28;19925;-67
2021/07/16 00:53:54;;;;;;;;;;;22.80;63.20;;;;;;4994483;28;20338;-70
2021/07/16 00:56:19;;;;;;;;;;;22.80;63.10;;;;;;4994964;28;19926;-66
2021/07/16 00:58:45;;;;;;;;;;;22.80;63.00;;;;;;4990188;28;19913;-65
2021/07/16 01:01:10;;;;;;;;;;;22.80;63.00;;;;;;4992446;28;19992;-66
2021/07/16 01:03:36;;;;;;;;;;;22.80;63.00;;;;;;4994403;28;19917;-65
2021/07/16 01:06:02;;;;;;;;;;;22.80;63.00;;;;;;4982300;28;19924;-65
2021/07/16 01:08:28;;;;;;;;;;;22.70;62.80;;;;;;4995002;28;19914;-70
2021/07/16 01:10:53;;;;;;;;;;;22.70;62.80;;;;;;4992887;28;20186;-64
2021/07/16 01:13:18;;;;;;;;;;;22.70;62.90;;;;;;4990894;28;19945;-69
2021/07/16 01:15:44;;;;;;;;;;;22.70;62.80;;;;;;4991183;28;19918;-66
2021/07/16 01:18:09;;;;;;;;;;;22.70;62.90;;;;;;5001238;28;19952;-70
2021/07/16 01:20:35;;;;;;;;;;;22.70;62.90;;;;;;4996509;28;19937;-64
2021/07/16 01:23:01;;;;;;;;;;;22.70;62.80;;;;;;4991886;28;19921;-70
2021/07/16 01:25:27;;;;;;;;;;;22.70;62.80;;;;;;5002933;28;20432;-66
2021/07/16 01:27:56;;;;;;;;;;;22.70;62.90;;;;;;4985817;28;20020;-66
2021/07/16 01:30:24;;;;;;;;;;;22.70;62.90;;;;;;5001159;28;20082;-69
2021/07/16 01:32:50;;;;;;;;;;;22.70;62.80;;;;;;4993069;28;20332;-69
2021/07/16 01:35:15;;;;;;;;;;;22.70;62.90;;;;;;4991881;28;19921;-65
2021/07/16 01:37:41;;;;;;;;;;;22.60;62.80;;;;;;5002936;28;20328;-66
2021/07/16 01:40:07;;;;;;;;;;;22.70;62.80;;;;;;4999938;28;20297;-70
2021/07/16 01:42:34;;;;;;;;;;;22.60;62.70;;;;;;4988448;28;19944;-70
2021/07/16 01:45:00;;;;;;;;;;;22.70;62.80;;;;;;4990778;28;19992;-65
2021/07/16 01:47:25;;;;;;;;;;;22.60;62.70;;;;;;4984350;28;19922;-69
2021/07/16 01:49:51;;;;;;;;;;;22.60;62.70;;;;;;4998884;28;19971;-71
2021/07/16 01:52:16;;;;;;;;;;;22.60;62.60;;;;;;4987445;28;19945;-65
2021/07/16 01:54:42;;;;;;;;;;;22.60;62.70;;;;;;5000331;28;20404;-70
2021/07/16 01:57:07;;;;;;;;;;;22.60;62.70;;;;;;4988429;28;19976;-65
2021/07/16 01:59:32;;;;;;;;;;;22.60;62.70;;;;;;5004275;28;19914;-69
2021/07/16 02:01:58;;;;;;;;;;;22.60;62.60;;;;;;4986130;28;19949;-70
2021/07/16 02:04:23;;;;;;;;;;;22.60;62.60;;;;;;4986964;28;20356;-71
2021/07/16 02:06:49;;;;;;;;;;;22.60;62.60;;;;;;4995729;28;19921;-66
2021/07/16 02:09:14;;;;;;;;;;;22.60;62.70;;;;;;5002101;28;19917;-66
2021/07/16 02:11:40;;;;;;;;;;;22.60;62.70;;;;;;4996656;28;19975;-65
2021/07/16 02:14:05;;;;;;;;;;;22.60;62.60;;;;;;4999411;28;19914;-70
2021/07/16 02:16:31;;;;;;;;;;;22.60;62.60;;;;;;4992470;28;20470;-70
2021/07/16 02:18:56;;;;;;;;;;;22.50;62.50;;;;;;4995330;28;20186;-71
2021/07/16 02:21:21;;;;;;;;;;;22.50;62.60;;;;;;4995704;28;19918;-70
2021/07/16 02:23:47;;;;;;;;;;;22.60;62.70;;;;;;4989201;28;20187;-70
2021/07/16 02:26:13;;;;;;;;;;;22.50;62.60;;;;;;5003587;28;20051;-70
2021/07/16 02:28:38;;;;;;;;;;;22.50;62.60;;;;;;5004090;28;19952;-70
2021/07/16 02:31:04;;;;;;;;;;;22.50;63.30;;;;;;5003536;28;20102;-70
2021/07/16 02:33:30;;;;;;;;;;;22.50;62.70;;;;;;5005238;28;19936;-70
2021/07/16 02:35:55;;;;;;;;;;;22.50;62.60;;;;;;5004990;28;19961;-70
2021/07/16 02:38:23;;;;;;;;;;;22.50;62.70;;;;;;5005052;28;20016;-70
2021/07/16 02:40:49;;;;;;;;;;;22.50;62.70;;;;;;5004710;28;19917;-69
2021/07/16 02:43:15;;;;;;;;;;;22.50;62.60;;;;;;5005169;28;20457;-71
2021/07/16 02:45:40;;;;;;;;;;;22.50;62.60;;;;;;5006036;28;20303;-71
2021/07/16 02:48:06;;;;;;;;;;;22.50;62.50;;;;;;5002953;28;20460;-71
2021/07/16 02:50:32;;;;;;;;;;;22.50;62.50;;;;;;5004274;28;19913;-69
2021/07/16 02:52:57;;;;;;;;;;;22.50;62.70;;;;;;5004238;28;19952;-71
2021/07/16 02:55:23;;;;;;;;;;;22.40;62.60;;;;;;5004697;28;20378;-71
2021/07/16 02:57:49;;;;;;;;;;;22.50;62.70;;;;;;5004254;28;19917;-71
2021/07/16 03:00:24;;;;;;;;;;;22.50;62.60;;;;;;5003192;28;19914;-70
2021/07/16 03:02:50;;;;;;;;;;;22.40;62.60;;;;;;5003044;28;19960;-71
2021/07/16 03:05:16;;;;;;;;;;;22.50;62.60;;;;;;5003585;28;19963;-71
2021/07/16 03:07:41;;;;;;;;;;;22.40;62.70;;;;;;5003417;28;20292;-70
2021/07/16 03:10:07;;;;;;;;;;;22.40;62.70;;;;;;5003154;28;19963;-71
2021/07/16 03:12:34;;;;;;;;;;;22.40;62.60;;;;;;5027077;23;19936;-77
2021/07/16 03:14:59;;;;;;;;;;;22.40;62.50;;;;;;4996376;28;19914;-75
2021/07/16 03:17:24;;;;;;;;;;;22.50;62.50;;;;;;5009534;28;20310;-77
2021/07/16 03:19:50;;;;;;;;;;;22.40;62.50;;;;;;5018385;28;19913;-75
2021/07/16 03:22:15;;;;;;;;;;;22.40;62.60;;;;;;5017836;28;19913;-72
2021/07/16 03:24:41;;;;;;;;;;;22.40;63.10;;;;;;5029254;28;19913;-75
2021/07/16 03:27:06;;;;;;;;;;;22.40;62.40;;;;;;5027474;28;20387;-73
2021/07/16 03:29:32;;;;;;;;;;;22.40;62.40;;;;;;5027046;28;20047;-74
2021/07/16 03:31:57;;;;;;;;;;;22.40;62.40;;;;;;5026384;28;19923;-76
2021/07/16 03:34:23;;;;;;;;;;;22.40;62.40;;;;;;5029896;28;19921;-75
2021/07/16 03:36:48;;;;;;;;;;;22.40;62.50;;;;;;5022104;28;19917;-77
2021/07/16 03:39:14;;;;;;;;;;;22.40;62.50;;;;;;5015836;28;19913;-77
2021/07/16 03:41:39;;;;;;;;;;;22.40;62.60;;;;;;5009975;28;19921;-74
2021/07/16 03:44:05;;;;;;;;;;;22.40;62.50;;;;;;4994361;28;20411;-75
2021/07/16 03:46:30;;;;;;;;;;;22.40;62.50;;;;;;5014601;28;20054;-74
2021/07/16 03:48:55;;;;;;;;;;;22.40;62.70;;;;;;5022516;28;20009;-77
2021/07/16 03:51:21;;;;;;;;;;;22.40;62.70;;;;;;5011162;28;19914;-77
2021/07/16 03:53:46;;;;;;;;;;;22.40;62.80;;;;;;5022570;28;20279;-76
2021/07/16 03:56:12;;;;;;;;;;;22.40;62.70;;;;;;5024737;28;20721;-76
2021/07/16 03:58:37;;;;;;;;;;;22.40;62.80;;;;;;5026497;28;19913;-77
2021/07/16 04:01:03;;;;;;;;;;;22.40;62.80;;;;;;5016735;28;19913;-77
2021/07/16 04:03:28;;;;;;;;;;;22.40;62.80;;;;;;5026112;28;19917;-77
2021/07/16 04:05:55;;;;;;;;;;;22.40;62.80;;;;;;5026196;28;20001;-77
2021/07/16 04:08:20;;;;;;;;;;;22.30;62.80;;;;;;5029113;28;19913;-74
2021/07/16 04:10:46;;;;;;;;;;;22.40;62.90;;;;;;5026723;28;19917;-77
2021/07/16 04:13:12;;;;;;;;;;;22.40;63.00;;;;;;5027475;28;19914;-75
2021/07/16 04:15:38;;;;;;;;;;;22.30;63.00;;;;;;5013437;28;19925;-76
2021/07/16 04:18:03;;;;;;;;;;;22.40;63.00;;;;;;5014757;28;20012;-76
2021/07/16 04:20:29;;;;;;;;;;;22.40;63.00;;;;;;5012549;28;19928;-75
2021/07/16 04:22:55;;;;;;;;;;;22.30;63.00;;;;;;5020043;28;19913;-76
2021/07/16 04:25:20;;;;;;;;;;;22.40;63.20;;;;;;5025368;28;19960;-77
2021/07/16 04:27:46;;;;;;;;;;;22.40;63.10;;;;;;5019307;28;20540;-75
2021/07/16 04:30:12;;;;;;;;;;;22.40;62.90;;;;;;5026151;28;19917;-77
2021/07/16 04:32:40;;;;;;;;;;;22.40;63.10;;;;;;5021404;28;19980;-75
2021/07/16 04:35:06;;;;;;;;;;;22.40;63.30;;;;;;5016418;28;19963;-75
2021/07/16 04:37:32;;;;;;;;;;;22.40;63.20;;;;;;5013154;28;20551;-75
2021/07/16 04:39:57;;;;;;;;;;;22.40;63.20;;;;;;5007354;28;19936;-76
2021/07/16 04:42:22;;;;;;;;;;;22.40;63.30;;;;;;5024815;28;19983;-79
2021/07/16 04:44:48;;;;;;;;;;;22.50;63.40;;;;;;5019500;28;19925;-75
2021/07/16 04:47:14;;;;;;;;;;;22.50;63.40;;;;;;4991290;28;19913;-75
2021/07/16 04:49:39;;;;;;;;;;;22.50;63.50;;;;;;5023252;28;19967;-77
2021/07/16 04:52:05;;;;;;;;;;;22.50;63.50;;;;;;5013466;28;19963;-75
2021/07/16 04:54:30;;;;;;;;;;;22.50;63.70;;;;;;5018820;28;19917;-75
2021/07/16 04:56:56;;;;;;;;;;;22.60;63.80;;;;;;5011623;28;19917;-73
2021/07/16 04:59:21;;;;;;;;;;;22.60;63.80;;;;;;5016285;28;19917;-74
2021/07/16 05:01:48;;;;;;;;;;;22.60;63.60;;;;;;5017603;28;19921;-75
2021/07/16 05:04:13;;;;;;;;;;;22.60;63.40;;;;;;5006224;28;19964;-75
2021/07/16 05:06:39;;;;;;;;;;;22.60;63.40;;;;;;5007464;28;19921;-74
2021/07/16 05:09:04;;;;;;;;;;;22.60;63.50;;;;;;5011568;28;19966;-75
2021/07/16 05:11:31;;;;;;;;;;;22.60;63.50;;;;;;5012350;28;19925;-74
2021/07/16 05:13:56;;;;;;;;;;;22.60;63.60;;;;;;4987769;28;20000;-73
2021/07/16 05:16:21;;;;;;;;;;;22.60;63.60;;;;;;5014178;28;19925;-75
2021/07/16 05:18:47;;;;;;;;;;;22.60;63.80;;;;;;5011122;28;19917;-74
2021/07/16 05:21:13;;;;;;;;;;;22.70;63.80;;;;;;5008630;28;19914;-75
2021/07/16 05:23:38;;;;;;;;;;;22.70;64.60;;;;;;5017234;28;20017;-75
2021/07/16 05:26:05;;;;;;;;;;;22.70;64.60;;;;;;5011646;28;21262;-75
2021/07/16 05:28:31;;;;;;;;;;;22.70;64.60;;;;;;5019637;28;19917;-76
2021/07/16 05:30:56;;;;;;;;;;;22.70;64.60;;;;;;5007658;28;20641;-75
2021/07/16 05:33:22;;;;;;;;;;;22.70;64.50;;;;;;5004800;28;19923;-74
2021/07/16 05:35:48;;;;;;;;;;;22.70;64.50;;;;;;5013315;28;19913;-75
2021/07/16 05:38:13;;;;;;;;;;;22.70;64.40;;;;;;5027010;22;19926;-60
2021/07/16 05:40:39;;;;;;;;;;;22.70;64.40;;;;;;5000749;28;20322;-60
2021/07/16 05:43:08;;;;;;;;;;;22.70;64.30;;;;;;4999592;28;19963;-60
2021/07/16 05:45:33;;;;;;;;;;;22.70;64.30;;;;;;5002967;28;19925;-60
2021/07/16 05:48:01;;;;;;;;;;;22.70;64.30;;;;;;5001808;28;19995;-60
2021/07/16 05:50:26;;;;;;;;;;;22.70;64.00;;;;;;5002585;28;19917;-60
2021/07/16 05:52:52;;;;;;;;;;;22.70;64.00;;;;;;4990023;28;20605;-60
2021/07/16 05:55:17;;;;;;;;;;;22.70;63.90;;;;;;4981484;28;19926;-61
2021/07/16 05:57:43;;;;;;;;;;;22.70;63.80;;;;;;4982626;28;19929;-61
2021/07/16 06:00:08;;;;;;;;;;;22.70;64.10;;;;;;4982035;28;19914;-61
2021/07/16 06:02:34;;;;;;;;;;;22.70;63.90;;;;;;4982707;28;19921;-60
2021/07/16 06:04:59;;;;;;;;;;;22.70;64.00;;;;;;4982861;28;20398;-59
2021/07/16 06:07:25;;;;;;;;;;;22.70;64.10;;;;;;5000455;28;19923;-60
2021/07/16 06:09:50;;;;;;;;;;;22.70;64.00;;;;;;4998856;28;19940;-60
2021/07/16 06:12:16;;;;;;;;;;;22.70;64.00;;;;;;4986026;28;20370;-61
2021/07/16 06:14:41;;;;;;;;;;;22.70;64.10;;;;;;5001020;28;19914;-61
2021/07/16 06:17:07;;;;;;;;;;;22.70;64.00;;;;;;5002098;28;19925;-61
2021/07/16 06:19:33;;;;;;;;;;;22.70;64.30;;;;;;5001634;28;20271;-61
2021/07/16 06:21:58;;;;;;;;;;;22.70;64.30;;;;;;4981722;28;19922;-62
2021/07/16 06:24:24;;;;;;;;;;;22.70;64.30;;;;;;4981619;28;20266;-60
2021/07/16 06:26:49;;;;;;;;;;;22.70;64.30;;;;;;4984852;28;20333;-61
2021/07/16 06:29:15;;;;;;;;;;;22.70;64.60;;;;;;5000039;28;19914;-60
2021/07/16 06:31:40;;;;;;;;;;;22.70;64.60;;;;;;4995243;28;19917;-61
2021/07/16 06:34:06;;;;;;;;;;;22.70;64.30;;;;;;4985705;28;19922;-61
2021/07/16 06:36:31;;;;;;;;;;;22.70;65.80;;;;;;4997797;28;19927;-61
2021/07/16 06:38:56;;;;;;;;;;;22.70;65.50;;;;;;4998146;28;20441;-61
2021/07/16 06:41:22;;;;;;;;;;;22.70;65.80;;;;;;4979875;28;19922;-61
2021/07/16 06:43:47;;;;;;;;;;;22.60;66.00;;;;;;4980051;28;19918;-61
2021/07/16 06:46:13;;;;;;;;;;;22.60;65.70;;;;;;4980724;28;20382;-59
2021/07/16 06:48:42;;;;;;;;;;;22.60;65.30;;;;;;4982080;28;19917;-59
2021/07/16 06:51:08;;;;;;;;;;;22.70;65.30;;;;;;4975377;28;19920;-59
2021/07/16 06:53:33;;;;;;;;;;;22.70;65.10;;;;;;4980241;28;20004;-60
2021/07/16 06:55:59;;;;;;;;;;;22.70;65.00;;;;;;4979885;28;19926;-59
2021/07/16 06:58:24;;;;;;;;;;;22.70;65.10;;;;;;4979654;28;20297;-58
2021/07/16 07:00:50;;;;;;;;;;;22.70;65.30;;;;;;4979166;28;19996;-60
2021/07/16 07:03:16;;;;;;;;;;;22.70;65.60;;;;;;4979753;28;20375;-58
2021/07/16 07:05:41;;;;;;;;;;;22.70;66.10;;;;;;4979358;28;19913;-60
2021/07/16 07:08:07;;;;;;;;;;;22.70;66.50;;;;;;4993592;28;19929;-60
2021/07/16 07:10:32;;;;;;;;;;;22.70;66.60;;;;;;4979517;28;19960;-59
2021/07/16 07:12:57;;;;;;;;;;;22.70;66.80;;;;;;4979780;28;20338;-59
2021/07/16 07:15:23;;;;;;;;;;;22.70;66.70;;;;;;4979378;28;19913;-58
2021/07/16 07:17:48;;;;;;;;;;;22.70;66.80;;;;;;4980356;28;19968;-58
2021/07/16 07:20:14;;;;;;;;;;;22.70;66.80;;;;;;4976955;28;20422;-58
2021/07/16 07:22:40;;;;;;;;;;;22.70;66.80;;;;;;4979297;28;20012;-57
2021/07/16 07:25:06;;;;;;;;;;;22.70;66.70;;;;;;4980402;28;19925;-58
2021/07/16 07:27:32;;;;;;;;;;;22.70;66.70;;;;;;4980764;28;19944;-58
2021/07/16 07:29:57;;;;;;;;;;;22.70;66.60;;;;;;4998723;28;19914;-58
2021/07/16 07:32:23;;;;;;;;;;;22.70;66.50;;;;;;4998940;28;19928;-59
2021/07/16 07:34:48;;;;;;;;;;;22.70;66.60;;;;;;4999242;28;19917;-61
2021/07/16 07:37:14;;;;;;;;;;;22.70;66.60;;;;;;4998178;28;19917;-59
2021/07/16 07:39:39;;;;;;;;;;;22.70;66.60;;;;;;4998743;28;19991;-59
2021/07/16 07:42:04;;;;;;;;;;;22.70;66.50;;;;;;4997456;28;21308;-60
2021/07/16 07:44:30;;;;;;;;;;;22.70;66.50;;;;;;4998821;28;19922;-59
2021/07/16 07:46:55;;;;;;;;;;;22.70;66.50;;;;;;4988305;28;19914;-58
2021/07/16 07:49:21;;;;;;;;;;;22.70;66.50;;;;;;4986614;28;19913;-58
2021/07/16 07:51:46;;;;;;;;;;;22.70;66.50;;;;;;4998292;28;19917;-60
2021/07/16 07:54:12;;;;;;;;;;;22.70;66.50;;;;;;4994687;28;20358;-58
2021/07/16 07:56:37;;;;;;;;;;;22.70;66.40;;;;;;4979266;28;19922;-57
2021/07/16 07:59:03;;;;;;;;;;;22.70;66.40;;;;;;4978507;28;19914;-59
2021/07/16 08:01:28;;;;;;;;;;;22.70;66.40;;;;;;4986069;28;19929;-59
2021/07/16 08:03:54;;;;;;;;;;;22.70;66.40;;;;;;4978619;28;20147;-58
2021/07/16 08:06:19;;;;;;;;;;;22.70;66.40;;;;;;4978543;28;20206;-59
2021/07/16 08:08:45;;;;;;;;;;;22.70;66.50;;;;;;4978503;28;19918;-58
2021/07/16 08:11:10;;;;;;;;;;;22.70;66.40;;;;;;4994962;28;19921;-58
2021/07/16 08:13:36;;;;;;;;;;;22.70;66.40;;;;;;4996083;28;20396;-58
2021/07/16 08:16:01;;;;;;;;;;;22.70;66.40;;;;;;4990659;28;19918;-57
2021/07/16 08:18:28;;;;;;;;;;;22.70;66.50;;;;;;4994431;28;19918;-59
2021/07/16 08:20:54;;;;;;;;;;;22.70;66.50;;;;;;5001012;28;20424;-58
2021/07/16 08:23:19;;;;;;;;;;;22.70;66.40;;;;;;5001995;28;19917;-58
2021/07/16 08:25:45;;;;;;;;;;;22.70;66.40;;;;;;4986032;28;19914;-58
2021/07/16 08:28:10;;;;;;;;;;;22.70;66.50;;;;;;4983223;28;19921;-59
2021/07/16 08:30:36;;;;;;;;;;;22.70;66.60;;;;;;5002350;28;19922;-58
2021/07/16 08:33:02;;;;;;;;;;;22.70;66.60;;;;;;4997079;28;19921;-59
2021/07/16 08:35:27;;;;;;;;;;;22.70;66.50;;;;;;4982369;28;19913;-58
2021/07/16 08:37:53;;;;;;;;;;;22.70;66.50;;;;;;4981838;28;19972;-59
2021/07/16 08:40:18;;;;;;;;;;;22.70;66.60;;;;;;4982180;28;19928;-57
2021/07/16 08:42:45;;;;;;;;;;;22.70;66.60;;;;;;4982418;28;20307;-58
2021/07/16 08:45:11;;;;;;;;;;;22.70;66.60;;;;;;4980722;28;19914;-59
2021/07/16 08:47:36;;;;;;;;;;;22.80;66.70;;;;;;4982248;28;20115;-58
2021/07/16 08:50:02;;;;;;;;;;;22.80;66.70;;;;;;4981741;28;19917;-58
2021/07/16 08:52:29;;;;;;;;;;;22.80;66.60;;;;;;4979970;28;19976;-59
2021/07/16 08:54:55;;;;;;;;;;;22.80;66.60;;;;;;4982305;28;20398;-58
2021/07/16 08:57:24;;;;;;;;;;;22.80;66.60;;;;;;4983230;28;19980;-59
2021/07/16 08:59:49;;;;;;;;;;;22.80;66.60;;;;;;4998843;28;20138;-58
2021/07/16 09:02:15;;;;;;;;;;;22.80;66.60;;;;;;4981452;28;20268;-58
2021/07/16 09:04:41;;;;;;;;;;;22.80;66.70;;;;;;4995239;28;19913;-58
2021/07/16 09:07:06;;;;;;;;;;;22.80;66.70;;;;;;5001512;28;20271;-58
2021/07/16 09:09:36;;;;;;;;;;;22.80;66.60;;;;;;5001385;28;19992;-59
2021/07/16 09:12:02;;;;;;;;;;;22.80;66.60;;;;;;5014682;23;20598;-60
2021/07/16 09:14:28;;;;;;;;;;;22.80;66.50;;;;;;5007383;28;19913;-61
2021/07/16 09:16:55;;;;;;;;;;;22.70;66.50;;;;;;5011799;28;19918;-58
2021/07/16 09:19:27;;;;;;;;;;;22.80;66.80;;;;;;4997057;28;19913;-61
2021/07/16 09:21:59;;;;;;;;;;;22.80;66.80;;;;;;4993568;28;20471;-60
2021/07/16 09:24:25;;;;;;;;;;;22.80;66.70;;;;;;4994336;28;19921;-61
2021/07/16 09:26:50;;;;;;;;;;;22.80;66.60;;;;;;5000978;28;19921;-61
2021/07/16 09:29:25;;;;;;;;;;;22.80;66.60;;;;;;4993950;28;20443;-61
2021/07/16 09:31:50;;;;;;;;;;;22.80;66.70;;;;;;4982709;28;19925;-61
2021/07/16 09:34:20;;;;;;;;;;;22.80;67.40;;;;;;4990267;28;19917;-61
2021/07/16 09:36:45;;;;;;;;;;;22.80;66.60;;;;;;4996180;28;19921;-61
2021/07/16 09:39:11;;;;;;;;;;;22.80;66.70;;;;;;4990471;28;19924;-62
2021/07/16 09:41:50;;;;;;;;;;;22.80;66.60;;;;;;4991542;28;20000;-60
2021/07/16 09:44:25;;;;;;;;;;;22.80;66.60;;;;;;5012525;28;19935;-61
2021/07/16 09:47:09;;;;;;;;;;;22.80;66.50;;;;;;4999693;28;20439;-61
2021/07/16 09:49:35;;;;;;;;;;;22.90;66.70;;;;;;5008292;28;19914;-61
2021/07/16 09:52:07;;;;;;;;;;;22.80;66.80;;;;;;5012958;28;19921;-61
2021/07/16 09:54:33;;;;;;;;;;;22.80;66.90;;;;;;5007906;28;19913;-61
2021/07/16 09:56:58;;;;;;;;;;;22.80;67.20;;;;;;5015061;28;19928;-61
2021/07/16 09:59:27;;;;;;;;;;;22.90;67.10;;;;;;5006554;28;19921;-61
2021/07/16 10:01:53;;;;;;;;;;;22.90;67.00;;;;;;5007409;28;19918;-61
2021/07/16 10:04:21;;;;;;;;;;;22.90;67.00;;;;;;5012283;28;19913;-61
2021/07/16 10:06:48;;;;;;;;;;;22.90;67.20;;;;;;5011076;28;19914;-61
2021/07/16 10:09:14;;;;;;;;;;;22.90;67.20;;;;;;5014993;28;19959;-61
2021/07/16 10:11:40;;;;;;;;;;;22.90;67.60;;;;;;5014631;28;19921;-61
2021/07/16 10:14:08;;;;;;;;;;;22.90;67.50;;;;;;5008969;28;20401;-61
2021/07/16 10:16:35;;;;;;;;;;;22.90;67.80;;;;;;5010642;28;20021;-61
2021/07/16 10:19:01;;;;;;;;;;;22.90;67.80;;;;;;5017539;28;19921;-61
2021/07/16 10:21:26;;;;;;;;;;;22.90;67.80;;;;;;5003243;28;19923;-61
2021/07/16 10:23:52;;;;;;;;;;;22.90;67.60;;;;;;5014285;28;19918;-60
2021/07/16 10:26:19;;;;;;;;;;;22.90;67.70;;;;;;5010564;28;19921;-60
2021/07/16 10:28:44;;;;;;;;;;;22.90;67.70;;;;;;5005939;28;19913;-60
2021/07/16 10:31:28;;;;;;;;;;;22.90;67.90;;;;;;5008903;28;19920;-61
2021/07/16 10:33:54;;;;;;;;;;;22.90;68.10;;;;;;5020869;28;19940;-60
2021/07/16 10:36:54;;;;;;;;;;;22.90;68.00;;;;;;5008026;28;20578;-60
2021/07/16 10:39:20;;;;;;;;;;;22.90;67.90;;;;;;4922944;28;20291;-61
2021/07/16 10:41:46;;;;;;;;;;;22.90;67.80;;;;;;4997113;28;20008;-60
2021/07/16 10:44:12;;;;;;;;;;;22.90;67.60;;;;;;5006776;28;19913;-62
2021/07/16 10:46:38;;;;;;;;;;;22.90;67.40;;;;;;5009647;28;20002;-61
2021/07/16 10:49:04;;;;;;;;;;;22.90;67.60;;;;;;5019723;28;20063;-61
2021/07/16 10:51:30;;;;;;;;;;;22.90;67.90;;;;;;5012573;28;19917;-57
2021/07/16 10:53:56;;;;;;;;;;;22.90;68.00;;;;;;5003835;28;20000;-61
2021/07/16 10:56:34;;;;;;;;;;;23.00;68.00;;;;;;5013424;28;20005;-60
2021/07/16 10:59:00;;;;;;;;;;;22.90;67.80;;;;;;5021138;28;19920;-62
2021/07/16 11:01:30;;;;;;;;;;;23.00;68.20;;;;;;5013179;28;19963;-62
2021/07/16 11:03:56;;;;;;;;;;;23.00;68.10;;;;;;5010264;28;19922;-62
2021/07/16 11:06:21;;;;;;;;;;;23.00;68.00;;;;;;5007114;28;19983;-63
2021/07/16 11:08:50;;;;;;;;;;;23.00;68.00;;;;;;5009188;28;19913;-60
2021/07/16 11:11:16;;;;;;;;;;;23.00;68.00;;;;;;5014293;28;19987;-61
2021/07/16 11:13:48;;;;;;;;;;;23.00;67.80;;;;;;5010118;28;19921;-61
2021/07/16 11:16:32;;;;;;;;;;;23.00;67.60;;;;;;5012190;28;19920;-61
2021/07/16 11:18:58;;;;;;;;;;;23.00;67.70;;;;;;5012265;28;20705;-61
2021/07/16 11:21:42;;;;;;;;;;;23.00;67.60;;;;;;5011847;28;19971;-61
2021/07/16 11:24:17;;;;;;;;;;;23.00;68.10;;;;;;5012343;28;19952;-61
2021/07/16 11:26:46;;;;;;;;;;;23.00;68.00;;;;;;5020265;28;19913;-59
2021/07/16 11:29:11;;;;;;;;;;;23.00;67.90;;;;;;5010394;28;19957;-63
2021/07/16 11:31:37;;;;;;;;;;;23.00;67.80;;;;;;5009898;28;20120;-60
2021/07/16 11:34:02;;;;;;;;;;;23.00;68.00;;;;;;5016916;28;19925;-60
2021/07/16 11:36:29;;;;;;;;;;;23.00;67.70;;;;;;5008086;28;20291;-62
2021/07/16 11:38:55;;;;;;;;;;;23.00;68.00;;;;;;5010726;28;19920;-60
2021/07/16 11:41:32;;;;;;;;;;;23.00;67.60;;;;;;5006364;28;19914;-61
2021/07/16 11:44:01;;;;;;;;;;;23.10;67.60;;;;;;5010264;28;20436;-61
2021/07/16 11:46:27;;;;;;;;;;;23.10;68.00;;;;;;5004479;28;20403;-61
2021/07/16 11:48:52;;;;;;;;;;;23.10;67.90;;;;;;5010875;28;19925;-61
2021/07/16 11:51:25;;;;;;;;;;;23.10;67.70;;;;;;5015063;28;20433;-61
2021/07/16 11:53:51;;;;;;;;;;;23.10;68.00;;;;;;5009787;28;20621;-61
2021/07/16 11:56:16;;;;;;;;;;;23.10;67.60;;;;;;5005916;28;19917;-61
2021/07/16 11:58:48;;;;;;;;;;;23.10;67.90;;;;;;5007173;28;20370;-60
2021/07/16 12:01:13;;;;;;;;;;;23.10;67.70;;;;;;5003278;28;20450;-61
2021/07/16 12:03:39;;;;;;;;;;;23.10;66.90;;;;;;5011348;28;20000;-61
2021/07/16 12:06:06;;;;;;;;;;;23.10;67.80;;;;;;5013270;28;20326;-60
2021/07/16 12:08:34;;;;;;;;;;;23.10;67.60;;;;;;5004601;28;19932;-60
2021/07/16 12:11:05;;;;;;;;;;;23.10;67.80;;;;;;4989743;28;20012;-58
2021/07/16 12:13:31;;;;;;;;;;;23.10;67.60;;;;;;5008505;28;19935;-61
2021/07/16 12:16:03;;;;;;;;;;;23.20;67.70;;;;;;5003830;28;19917;-61
2021/07/16 12:18:28;;;;;;;;;;;23.10;67.80;;;;;;5015546;28;19925;-61
2021/07/16 12:20:56;;;;;;;;;;;23.10;66.80;;;;;;4996891;28;20377;-61
2021/07/16 12:23:21;;;;;;;;;;;23.10;66.80;;;;;;5022175;28;19940;-61
2021/07/16 12:25:46;;;;;;;;;;;23.20;67.20;;;;;;4999947;28;20378;-62
2021/07/16 12:28:18;;;;;;;;;;;23.10;67.40;;;;;;5008356;28;19913;-61
2021/07/16 12:30:44;;;;;;;;;;;23.20;67.10;;;;;;4994809;28;19914;-61
2021/07/16 12:33:09;;;;;;;;;;;23.20;66.90;;;;;;5020507;28;19914;-62
2021/07/16 12:35:36;;;;;;;;;;;23.20;66.40;;;;;;4986336;28;19914;-60
2021/07/16 12:38:03;;;;;;;;;;;23.20;67.30;;;;;;4989716;28;19918;-60
2021/07/16 12:40:29;;;;;;;;;;;23.20;66.80;;;;;;4993575;28;19914;-61
2021/07/16 12:42:57;;;;;;;;;;;23.20;66.40;;;;;;4990331;28;20322;-61
2021/07/16 12:45:26;;;;;;;;;;;23.20;66.70;;;;;;4992709;28;19928;-62
2021/07/16 12:47:52;;;;;;;;;;;23.30;66.70;;;;;;4973954;28;19924;-61
2021/07/16 12:50:18;;;;;;;;;;;23.20;66.60;;;;;;4984671;28;20431;-62
2021/07/16 12:52:50;;;;;;;;;;;23.30;66.60;;;;;;4991044;28;19913;-62
2021/07/16 12:55:16;;;;;;;;;;;23.20;66.40;;;;;;4996951;28;19914;-60
2021/07/16 12:57:42;;;;;;;;;;;23.20;66.50;;;;;;4990871;28;19928;-62
2021/07/16 13:00:18;;;;;;;;;;;23.20;66.40;;;;;;4996857;28;19968;-61
2021/07/16 13:02:44;;;;;;;;;;;23.30;66.60;;;;;;4990455;28;20291;-60
2021/07/16 13:05:09;;;;;;;;;;;23.30;66.40;;;;;;5003673;28;19949;-60
2021/07/16 13:07:35;;;;;;;;;;;23.30;66.70;;;;;;4987813;28;19913;-62
2021/07/16 13:10:00;;;;;;;;;;;23.30;66.70;;;;;;4998398;28;19914;-62
2021/07/16 13:12:31;;;;;;;;;;;23.30;66.60;;;;;;4980078;28;20663;-61
2021/07/16 13:15:00;;;;;;;;;;;23.30;66.30;;;;;;4994873;28;20367;-60
2021/07/16 13:17:25;;;;;;;;;;;23.30;66.80;;;;;;4989824;28;19928;-61
2021/07/16 13:19:53;;;;;;;;;;;23.30;66.70;;;;;;4999354;28;19918;-60
2021/07/16 13:22:19;;;;;;;;;;;23.30;66.30;;;;;;4977484;28;19971;-61
2021/07/16 13:24:45;;;;;;;;;;;23.30;66.60;;;;;;5000297;28;19914;-61
2021/07/16 13:27:10;;;;;;;;;;;23.30;66.30;;;;;;4984842;28;20039;-63
2021/07/16 13:29:36;;;;;;;;;;;23.30;66.40;;;;;;4997343;28;20373;-60
2021/07/16 13:32:01;;;;;;;;;;;23.30;66.20;;;;;;4982828;28;19913;-62
2021/07/16 13:34:27;;;;;;;;;;;23.40;66.40;;;;;;4997653;28;20016;-59
2021/07/16 13:36:52;;;;;;;;;;;23.40;66.30;;;;;;4985633;28;19928;-59
2021/07/16 13:39:17;;;;;;;;;;;23.30;66.10;;;;;;4991924;28;19913;-61
2021/07/16 13:41:43;;;;;;;;;;;23.30;66.30;;;;;;4986716;28;19917;-61
2021/07/16 13:44:08;;;;;;;;;;;23.40;66.40;;;;;;4996689;28;19921;-61
2021/07/16 13:46:35;;;;;;;;;;;23.40;66.20;;;;;;4979144;28;20053;-61
2021/07/16 13:49:03;;;;;;;;;;;23.40;66.20;;;;;;4998768;28;19952;-61
2021/07/16 13:51:29;;;;;;;;;;;23.40;66.40;;;;;;4986525;28;19921;-61
2021/07/16 13:53:54;;;;;;;;;;;23.40;66.40;;;;;;5002881;28;19924;-60
2021/07/16 13:56:20;;;;;;;;;;;23.40;66.30;;;;;;4983002;28;19913;-60
2021/07/16 13:58:45;;;;;;;;;;;23.40;66.50;;;;;;5000769;28;19941;-59
2021/07/16 14:01:10;;;;;;;;;;;23.40;66.40;;;;;;4981797;28;20311;-61
2021/07/16 14:03:36;;;;;;;;;;;23.40;66.70;;;;;;4995669;28;19921;-61
2021/07/16 14:06:01;;;;;;;;;;;23.40;66.30;;;;;;5008582;28;19913;-61
2021/07/16 14:08:28;;;;;;;;;;;23.40;66.20;;;;;;5003387;28;20012;-59
2021/07/16 14:10:54;;;;;;;;;;;23.40;66.40;;;;;;5002637;28;20707;-60